Bernice Lind — WDC8364 — position and weather

sailwx.info

Track history (hours):
 
Tides and Currents Weather Stations Pressure Air Temp Water Temp Dewpoint Dewpoint Depression Visibility Wind Speed Wind Dir Waves Ship Positions

Bernice Lind

Owner: Riverview Equipment Company, LLC, Petaluma, CA. More information available from US FCC via Universal Licensing System and Coast Guard Vessel Documentation Center.

Last reported at 2015-Aug-02 08:31 UTC. Time now 2015-Aug-03 15:08 UTC.
Position N 38°14' W 122°18'.

Length 20 m; draft 3.3 m.

Type: Towing. MMSI: 367085890.

Date/timePositionNaut miles runAvg speedWind from/ knotsBaromVisibWave heightAir tempDewpointWater temp
2015-Aug-02 08:31N 38°14' W 122°18'3 3.3
2015-Aug-02 07:33N 38°11' W 122°18'3 3.2
2015-Aug-02 06:33N 38°08' W 122°17'0 0.0
2015-Aug-02 05:29N 38°08' W 122°17'0 0.0
2015-Aug-02 04:19N 38°08' W 122°17'4 2.4
2015-Aug-02 02:33N 38°04' W 122°14'7 5.5
2015-Aug-02 01:17N 38°03' W 122°06'4 4.1
2015-Aug-02 00:19N 38°04' W 122°00'11 0.8
2015-Aug-01 10:15N 38°04' W 122°15'10 0.7
2015-Jul-31 20:33N 38°14' W 122°18'4 3.6
2015-Jul-31 19:33N 38°10' W 122°18'3 2.6
2015-Jul-31 18:33N 38°08' W 122°17'0 0.0
2015-Jul-31 17:30N 38°08' W 122°17'0 0.0
2015-Jul-31 16:33N 38°08' W 122°17'3 3.0
2015-Jul-31 15:30N 38°05' W 122°15'4 3.7
2015-Jul-31 14:33N 38°03' W 122°11'8 5.2
2015-Jul-31 13:06N 38°04' W 122°01'3 4.9
2015-Jul-31 12:33N 38°03' W 121°58'3 3.0
2015-Jul-31 11:33N 38°03' W 121°54'0 0.0
2015-Jul-31 10:32N 38°03' W 121°54'0 0.0
2015-Jul-31 09:33N 38°03' W 121°54'0 0.0
2015-Jul-31 08:33N 38°03' W 121°54'0 0.0
2015-Jul-31 07:30N 38°03' W 121°54'0 0.0
2015-Jul-31 06:33N 38°03' W 121°54'0 0.0
2015-Jul-31 05:31N 38°03' W 121°54'2 1.7
2015-Jul-31 04:33N 38°03' W 121°56'5 4.9
2015-Jul-31 03:33N 38°04' W 122°03'5 4.7
2015-Jul-31 02:33N 38°02' W 122°08'4 4.4
2015-Jul-31 01:33N 38°04' W 122°13'4 4.3
2015-Jul-31 00:33N 38°03' W 122°19'5 4.8
2015-Jul-30 23:33N 38°03' W 122°25'5 5.2
2015-Jul-30 22:33N 38°07' W 122°30'5 4.5
2015-Jul-30 21:33N 38°11' W 122°32'4 3.8
2015-Jul-30 20:33N 38°13' W 122°36'0 0.1
2015-Jul-30 13:34N 38°14' W 122°36'0 0.0
2015-Jul-30 12:31N 38°14' W 122°36'0 0.0
2015-Jul-30 11:33N 38°14' W 122°36'0 0.0
2015-Jul-30 10:33N 38°14' W 122°36'0 0.1
2015-Jul-30 09:34N 38°13' W 122°36'0 0.0
2015-Jul-30 08:34N 38°13' W 122°36'0 0.3
2015-Jul-30 07:30N 38°13' W 122°36'3 3.5
2015-Jul-30 06:34N 38°11' W 122°33'4 4.3
2015-Jul-30 05:33N 38°07' W 122°31'5 4.5
2015-Jul-30 04:34N 38°05' W 122°26'3 3.4
2015-Jul-30 03:34N 38°03' W 122°23'4 3.9
2015-Jul-30 02:34N 38°04' W 122°18'6 5.7
2015-Jul-30 01:33N 38°03' W 122°10'6 5.4
2015-Jul-30 00:23N 38°04' W 122°02'5 5.0
2015-Jul-29 23:26N 38°03' W 121°56'2 2.0
2015-Jul-29 22:33N 38°03' W 121°54'0 0.0
2015-Jul-29 20:29N 38°03' W 121°54'0 0.0
2015-Jul-29 19:34N 38°03' W 121°54'0 0.1
2015-Jul-29 18:34N 38°03' W 121°54'0 0.0
2015-Jul-29 17:34N 38°03' W 121°54'0 0.4
2015-Jul-29 16:33N 38°03' W 121°55'0 0.0
2015-Jul-29 15:34N 38°03' W 121°55'0 0.0
2015-Jul-29 14:33N 38°03' W 121°55'0 0.0
2015-Jul-29 13:34N 38°03' W 121°55'0 0.0
2015-Jul-29 12:32N 38°03' W 121°55'4 3.6
2015-Jul-29 11:21N 38°04' W 122°00'4 4.4
2015-Jul-29 10:33N 38°03' W 122°05'4 4.2
2015-Jul-29 09:33N 38°02' W 122°10'5 5.0
2015-Jul-29 08:34N 38°04' W 122°16'6 5.6
2015-Jul-29 07:34N 38°03' W 122°23'5 4.8
2015-Jul-29 06:34N 38°06' W 122°27'3 3.4
2015-Jul-29 05:33N 38°08' W 122°31'4 4.0
2015-Jul-29 04:33N 38°12' W 122°33'3 0.1
2015-Jul-28 05:11N 38°13' W 122°36'0 0.1
2015-Jul-28 04:33N 38°13' W 122°36'3 3.4
2015-Jul-28 03:33N 38°12' W 122°33'4 4.0
2015-Jul-28 02:33N 38°08' W 122°31'5 4.1
2015-Jul-28 01:23N 38°05' W 122°26'3 3.0
2015-Jul-28 00:33N 38°02' W 122°25'3 2.8
2015-Jul-27 23:33N 38°02' W 122°22'6 5.3
2015-Jul-27 22:31N 38°04' W 122°15'17 3.1
2015-Jul-27 17:12N 38°03' W 121°54'0 0.0
2015-Jul-27 16:06N 38°03' W 121°54'0 0.0
2015-Jul-27 15:20N 38°03' W 121°54'0 0.0
2015-Jul-27 14:33N 38°03' W 121°54'0 0.0
2015-Jul-27 13:33N 38°03' W 121°54'0 0.0
2015-Jul-27 11:26N 38°03' W 121°54'11 3.7
2015-Jul-27 08:30N 38°02' W 122°08'4 4.4
2015-Jul-27 07:33N 38°04' W 122°13'6 6.1
2015-Jul-27 06:29N 38°09' W 122°18'4 4.5
2015-Jul-27 05:33N 38°13' W 122°19'  
2015-Jul-24 01:28N 38°14' W 122°18'4 3.6
2015-Jul-24 00:30N 38°10' W 122°18'3 0.9
2015-Jul-23 21:08N 38°08' W 122°17'5 1.9
2015-Jul-23 18:33N 38°04' W 122°13'15 2.9
2015-Jul-23 13:33N 38°03' W 121°55'0 0.0
2015-Jul-23 12:29N 38°03' W 121°55'0 0.0
2015-Jul-23 11:10N 38°03' W 121°55'0 0.0
2015-Jul-23 10:16N 38°03' W 121°55'  
Track history (hours):
 
Tides and Currents Weather Stations Pressure Air Temp Water Temp Dewpoint Dewpoint Depression Visibility Wind Speed Wind Dir Waves Ship Positions

Bernice Lind

Owner: Riverview Equipment Company, LLC, Petaluma, CA. More information available from US FCC via Universal Licensing System and Coast Guard Vessel Documentation Center.

Last reported at 2015-Aug-02 08:31 UTC. Time now 2015-Aug-03 15:08 UTC.
Position N 38°14' W 122°18'.

Length 20 m; draft 3.3 m.

Type: Towing. MMSI: 367085890.

Date/timePositionNaut miles runAvg speedWind from/ knotsBaromVisibWave heightAir tempDewpointWater temp
2015-Aug-02 08:31N 38°14' W 122°18'3 3.3
2015-Aug-02 07:33N 38°11' W 122°18'3 3.2
2015-Aug-02 06:33N 38°08' W 122°17'0 0.0
2015-Aug-02 05:29N 38°08' W 122°17'0 0.0
2015-Aug-02 04:19N 38°08' W 122°17'4 2.4
2015-Aug-02 02:33N 38°04' W 122°14'7 5.5
2015-Aug-02 01:17N 38°03' W 122°06'4 4.1
2015-Aug-02 00:19N 38°04' W 122°00'11 0.8
2015-Aug-01 10:15N 38°04' W 122°15'10 0.7
2015-Jul-31 20:33N 38°14' W 122°18'4 3.6
2015-Jul-31 19:33N 38°10' W 122°18'3 2.6
2015-Jul-31 18:33N 38°08' W 122°17'0 0.0
2015-Jul-31 17:30N 38°08' W 122°17'0 0.0
2015-Jul-31 16:33N 38°08' W 122°17'3 3.0
2015-Jul-31 15:30N 38°05' W 122°15'4 3.7
2015-Jul-31 14:33N 38°03' W 122°11'8 5.2
2015-Jul-31 13:06N 38°04' W 122°01'3 4.9
2015-Jul-31 12:33N 38°03' W 121°58'3 3.0
2015-Jul-31 11:33N 38°03' W 121°54'0 0.0
2015-Jul-31 10:32N 38°03' W 121°54'0 0.0
2015-Jul-31 09:33N 38°03' W 121°54'0 0.0
2015-Jul-31 08:33N 38°03' W 121°54'0 0.0
2015-Jul-31 07:30N 38°03' W 121°54'0 0.0
2015-Jul-31 06:33N 38°03' W 121°54'0 0.0
2015-Jul-31 05:31N 38°03' W 121°54'2 1.7
2015-Jul-31 04:33N 38°03' W 121°56'5 4.9
2015-Jul-31 03:33N 38°04' W 122°03'5 4.7
2015-Jul-31 02:33N 38°02' W 122°08'4 4.4
2015-Jul-31 01:33N 38°04' W 122°13'4 4.3
2015-Jul-31 00:33N 38°03' W 122°19'5 4.8
2015-Jul-30 23:33N 38°03' W 122°25'5 5.2
2015-Jul-30 22:33N 38°07' W 122°30'5 4.5
2015-Jul-30 21:33N 38°11' W 122°32'4 3.8
2015-Jul-30 20:33N 38°13' W 122°36'0 0.1
2015-Jul-30 13:34N 38°14' W 122°36'0 0.0
2015-Jul-30 12:31N 38°14' W 122°36'0 0.0
2015-Jul-30 11:33N 38°14' W 122°36'0 0.0
2015-Jul-30 10:33N 38°14' W 122°36'0 0.1
2015-Jul-30 09:34N 38°13' W 122°36'0 0.0
2015-Jul-30 08:34N 38°13' W 122°36'0 0.3
2015-Jul-30 07:30N 38°13' W 122°36'3 3.5
2015-Jul-30 06:34N 38°11' W 122°33'4 4.3
2015-Jul-30 05:33N 38°07' W 122°31'5 4.5
2015-Jul-30 04:34N 38°05' W 122°26'3 3.4
2015-Jul-30 03:34N 38°03' W 122°23'4 3.9
2015-Jul-30 02:34N 38°04' W 122°18'6 5.7
2015-Jul-30 01:33N 38°03' W 122°10'6 5.4
2015-Jul-30 00:23N 38°04' W 122°02'5 5.0
2015-Jul-29 23:26N 38°03' W 121°56'2 2.0
2015-Jul-29 22:33N 38°03' W 121°54'0 0.0
2015-Jul-29 20:29N 38°03' W 121°54'0 0.0
2015-Jul-29 19:34N 38°03' W 121°54'0 0.1
2015-Jul-29 18:34N 38°03' W 121°54'0 0.0
2015-Jul-29 17:34N 38°03' W 121°54'0 0.4
2015-Jul-29 16:33N 38°03' W 121°55'0 0.0
2015-Jul-29 15:34N 38°03' W 121°55'0 0.0
2015-Jul-29 14:33N 38°03' W 121°55'0 0.0
2015-Jul-29 13:34N 38°03' W 121°55'0 0.0
2015-Jul-29 12:32N 38°03' W 121°55'4 3.6
2015-Jul-29 11:21N 38°04' W 122°00'4 4.4
2015-Jul-29 10:33N 38°03' W 122°05'4 4.2
2015-Jul-29 09:33N 38°02' W 122°10'5 5.0
2015-Jul-29 08:34N 38°04' W 122°16'6 5.6
2015-Jul-29 07:34N 38°03' W 122°23'5 4.8
2015-Jul-29 06:34N 38°06' W 122°27'3 3.4
2015-Jul-29 05:33N 38°08' W 122°31'4 4.0
2015-Jul-29 04:33N 38°12' W 122°33'3 0.1
2015-Jul-28 05:11N 38°13' W 122°36'0 0.1
2015-Jul-28 04:33N 38°13' W 122°36'3 3.4
2015-Jul-28 03:33N 38°12' W 122°33'4 4.0
2015-Jul-28 02:33N 38°08' W 122°31'5 4.1
2015-Jul-28 01:23N 38°05' W 122°26'3 3.0
2015-Jul-28 00:33N 38°02' W 122°25'3 2.8
2015-Jul-27 23:33N 38°02' W 122°22'6 5.3
2015-Jul-27 22:31N 38°04' W 122°15'17 3.1
2015-Jul-27 17:12N 38°03' W 121°54'0 0.0
2015-Jul-27 16:06N 38°03' W 121°54'0 0.0
2015-Jul-27 15:20N 38°03' W 121°54'0 0.0
2015-Jul-27 14:33N 38°03' W 121°54'0 0.0
2015-Jul-27 13:33N 38°03' W 121°54'0 0.0
2015-Jul-27 11:26N 38°03' W 121°54'11 3.7
2015-Jul-27 08:30N 38°02' W 122°08'4 4.4
2015-Jul-27 07:33N 38°04' W 122°13'6 6.1
2015-Jul-27 06:29N 38°09' W 122°18'4 4.5
2015-Jul-27 05:33N 38°13' W 122°19'  
2015-Jul-24 01:28N 38°14' W 122°18'4 3.6
2015-Jul-24 00:30N 38°10' W 122°18'3 0.9
2015-Jul-23 21:08N 38°08' W 122°17'5 1.9
2015-Jul-23 18:33N 38°04' W 122°13'15 2.9
2015-Jul-23 13:33N 38°03' W 121°55'0 0.0
2015-Jul-23 12:29N 38°03' W 121°55'0 0.0
2015-Jul-23 11:10N 38°03' W 121°55'0 0.0
2015-Jul-23 10:16N 38°03' W 121°55'  

Dump ship's entire track history